Time;durP1;ratioP1;P1;durP2;ratioP2;P2;SDS_P1;SDS_P2;PMS_P1;PMS_P2;Temp;Humidity;BMP_temperature;BMP_pressure;BME280_temperature;BME280_humidity;BME280_pressure;Samples;Min_cycle;Max_cycle;Signal;HPM_P1;HPM_P2
2022/07/07 00:01:32;;;;;;;6.05;1.80;;;;;;;18.97;100.00;102031.88;5107361;28;20051;-70
2022/07/07 00:03:58;;;;;;;7.43;2.00;;;;;;;18.95;100.00;102034.56;5095398;28;20586;-71
2022/07/07 00:06:23;;;;;;;7.80;2.15;;;;;;;18.86;100.00;102027.38;5102480;28;20046;-70
2022/07/07 00:08:49;;;;;;;8.43;1.55;;;;;;;18.84;100.00;102021.19;5103361;28;20375;-71
2022/07/07 00:11:16;;;;;;;9.07;1.88;;;;;;;18.80;100.00;102015.81;5097347;28;20494;-70
2022/07/07 00:13:42;;;;;;;6.82;2.08;;;;;;;18.83;100.00;102015.84;5107553;28;20031;-70
2022/07/07 00:16:07;;;;;;;7.75;1.73;;;;;;;18.79;100.00;102020.28;5110933;28;20036;-70
2022/07/07 00:18:33;;;;;;;6.25;1.98;;;;;;;18.78;100.00;102013.16;5101932;28;20020;-71
2022/07/07 00:20:58;;;;;;;7.28;1.88;;;;;;;18.77;100.00;102007.81;5113151;28;20031;-73
2022/07/07 00:23:23;;;;;;;6.10;2.38;;;;;;;18.74;100.00;102006.03;5104715;28;20020;-70
2022/07/07 00:25:49;;;;;;;3.88;1.50;;;;;;;18.74;100.00;102011.38;5106324;28;20107;-71
2022/07/07 00:28:14;;;;;;;4.53;1.67;;;;;;;18.79;100.00;102009.63;5107009;28;20024;-71
2022/07/07 00:30:39;;;;;;;8.13;2.25;;;;;;;18.75;100.00;102001.63;5110937;28;20032;-71
2022/07/07 00:33:05;;;;;;;3.25;1.98;;;;;;;18.75;100.00;102002.50;5114181;28;20020;-71
2022/07/07 00:35:30;;;;;;;6.07;1.70;;;;;;;18.71;100.00;101998.06;5106973;28;20147;-71
2022/07/07 00:37:55;;;;;;;4.30;1.67;;;;;;;18.73;100.00;101992.72;5112917;28;20042;-71
2022/07/07 00:40:22;;;;;;;5.05;1.80;;;;;;;18.65;100.00;101993.59;5107376;28;20416;-71
2022/07/07 00:42:47;;;;;;;3.70;1.48;;;;;;;18.63;100.00;101986.50;5110648;28;20026;-70
2022/07/07 00:45:12;;;;;;;3.10;1.50;;;;;;;18.62;100.00;101985.59;5104652;28;20020;-70
2022/07/07 00:47:40;;;;;;;3.63;1.73;;;;;;;18.58;100.00;101993.59;5104002;28;20024;-71
2022/07/07 00:50:06;;;;;;;6.68;1.80;;;;;;;18.53;100.00;101986.47;5111736;28;20032;-70
2022/07/07 00:52:31;;;;;;;2.90;1.50;;;;;;;18.49;100.00;101995.34;5112791;28;20106;-71
2022/07/07 00:54:59;;;;;;;3.67;1.77;;;;;;;18.47;100.00;101997.09;5110989;28;20050;-70
2022/07/07 00:57:26;;;;;;;7.97;1.75;;;;;;;18.40;100.00;101995.31;5093493;28;20020;-70
2022/07/07 00:59:55;;;;;;;7.57;1.80;;;;;;;18.39;100.00;102001.53;5115213;28;20031;-70
2022/07/07 01:02:20;;;;;;;5.72;1.83;;;;;;;18.36;100.00;101988.19;5105610;28;20523;-70
2022/07/07 01:04:46;;;;;;;5.43;1.60;;;;;;;18.29;100.00;101997.97;5115371;28;20114;-71
2022/07/07 01:07:12;;;;;;;5.22;1.83;;;;;;;18.19;100.00;102005.03;5107950;28;20026;-71
2022/07/07 01:09:38;;;;;;;5.50;1.42;;;;;;;18.14;100.00;102001.47;5110889;28;20149;-71
2022/07/07 01:12:04;;;;;;;7.03;1.50;;;;;;;18.11;100.00;102004.13;5110231;28;20026;-70
2022/07/07 01:14:29;;;;;;;4.63;1.58;;;;;;;18.07;100.00;101997.00;5109627;28;20023;-71
2022/07/07 01:16:55;;;;;;;4.43;1.40;;;;;;;18.05;100.00;101998.75;5108404;28;20027;-70
2022/07/07 01:19:22;;;;;;;6.75;1.83;;;;;;;18.04;100.00;101991.63;5115028;28;20035;-70
2022/07/07 01:21:54;;;;;;;2.55;1.20;;;;;;;18.01;100.00;101992.53;5103463;28;20372;-71
2022/07/07 01:24:21;;;;;;;4.30;1.30;;;;;;;18.00;100.00;101987.19;5104326;28;20023;-71
2022/07/07 01:26:46;;;;;;;3.78;1.63;;;;;;;18.00;100.00;101981.84;5114075;28;20032;-71
2022/07/07 01:29:12;;;;;;;2.45;1.15;;;;;;;17.93;100.00;101999.59;5113263;28;20035;-71
2022/07/07 01:31:37;;;;;;;8.30;1.90;;;;;;;17.82;100.00;101991.53;5104167;28;20032;-71
2022/07/07 01:34:02;;;;;;;3.33;1.60;;;;;;;17.78;100.00;101987.06;5116028;28;20024;-69
2022/07/07 01:36:28;;;;;;;5.22;1.52;;;;;;;17.71;100.00;101982.59;5115968;28;20023;-71
2022/07/07 01:38:53;;;;;;;2.03;1.50;;;;;;;17.64;100.00;101981.66;5116349;28;20016;-71
2022/07/07 01:41:18;;;;;;;2.17;1.35;;;;;;;17.65;100.00;101966.59;5114692;28;20492;-71
2022/07/07 01:43:44;;;;;;;5.60;1.67;;;;;;;17.63;100.00;101969.22;5102111;28;20474;-71
2022/07/07 01:46:09;;;;;;;2.38;1.45;;;;;;;17.54;100.00;101969.22;5107332;28;20027;-70
2022/07/07 01:48:34;;;;;;;3.00;1.92;;;;;;;17.55;100.00;101964.75;5114432;28;20046;-71
2022/07/07 01:51:00;;;;;;;3.47;1.70;;;;;;;17.47;100.00;101972.69;5104322;28;20068;-70
2022/07/07 01:53:25;;;;;;;4.45;1.75;;;;;;;17.40;100.00;101974.41;5097289;28;20471;-70
2022/07/07 01:55:50;;;;;;;6.35;1.90;;;;;;;17.35;100.00;101963.75;5110303;28;20050;-70
2022/07/07 01:58:16;;;;;;;6.78;2.33;;;;;;;17.21;100.00;101970.75;5111771;28;20027;-71
2022/07/07 02:00:41;;;;;;;3.63;1.92;;;;;;;17.18;100.00;101968.94;5099718;28;20028;-71
2022/07/07 02:03:06;;;;;;;4.68;2.13;;;;;;;17.15;100.00;101955.63;5105483;28;20024;-71
2022/07/07 02:05:31;;;;;;;5.00;2.17;;;;;;;17.11;100.00;101961.81;5101606;28;20495;-70
2022/07/07 02:07:57;;;;;;;4.95;2.08;;;;;;;17.12;100.00;101966.28;5114374;28;20027;-70
2022/07/07 02:13:23;;;;;;;4.55;1.80;;;;;;;17.18;100.00;101952.13;5028113;28;20034;-69
2022/07/07 02:15:49;;;;;;;6.82;1.83;;;;;;;17.21;100.00;101951.25;5091905;28;20124;-70
2022/07/07 02:18:14;;;;;;;4.18;2.08;;;;;;;17.25;100.00;101945.94;5105513;28;20059;-71
2022/07/07 02:20:39;;;;;;;5.10;1.90;;;;;;;17.28;100.00;101950.41;5108300;28;20160;-70
2022/07/07 02:23:05;;;;;;;6.13;2.20;;;;;;;17.32;100.00;101957.53;5101635;28;20036;-71
2022/07/07 02:25:30;;;;;;;5.00;1.55;;;;;;;17.28;100.00;101969.03;5107473;28;20023;-70
2022/07/07 02:27:56;;;;;;;7.70;1.80;;;;;;;17.01;100.00;101978.56;5093280;28;20051;-69
2022/07/07 02:30:22;;;;;;;3.80;2.80;;;;;;;16.83;100.00;101971.31;5111140;28;20039;-71
2022/07/07 02:32:47;;;;;;;6.25;2.60;;;;;;;16.64;100.00;101951.66;5102563;28;20024;-71
2022/07/07 02:35:12;;;;;;;9.00;2.80;;;;;;;16.58;100.00;101956.91;5108274;28;20462;-69
2022/07/07 02:37:37;;;;;;;5.65;2.40;;;;;;;16.56;100.00;101958.66;5114256;28;20026;-70
2022/07/07 02:40:03;;;;;;;7.22;2.63;;;;;;;16.49;100.00;101958.63;5079798;28;20028;-70
2022/07/07 02:42:29;;;;;;;10.65;2.90;;;;;;;16.51;100.00;101959.50;5110480;28;20024;-70
2022/07/07 02:44:54;;;;;;;11.52;2.90;;;;;;;16.58;100.00;101962.25;5113589;28;20031;-71
2022/07/07 02:47:19;;;;;;;18.27;2.47;;;;;;;16.55;100.00;101978.13;5110058;28;20060;-71
2022/07/07 02:49:44;;;;;;;12.73;2.15;;;;;;;16.59;100.00;101975.53;5108180;28;20028;-70
2022/07/07 02:52:10;;;;;;;7.05;1.70;;;;;;;16.58;100.00;101975.53;5106745;28;20036;-70
2022/07/07 02:54:35;;;;;;;8.02;1.85;;;;;;;16.45;100.00;101967.41;5098474;28;20470;-70
2022/07/07 02:57:01;;;;;;;11.45;1.67;;;;;;;16.45;100.00;101969.19;5098841;28;20502;-70
2022/07/07 02:59:26;;;;;;;13.38;2.40;;;;;;;16.46;100.00;101966.53;5112185;28;20059;-71
2022/07/07 03:01:51;;;;;;;7.53;1.67;;;;;;;16.39;100.00;101967.34;5109158;28;20024;-70
2022/07/07 03:04:17;;;;;;;10.88;2.38;;;;;;;16.34;100.00;101974.38;5111555;28;20098;-70
2022/07/07 03:06:42;;;;;;;13.77;1.95;;;;;;;16.31;100.00;101975.22;5113523;28;20030;-69
2022/07/07 03:09:08;;;;;;;10.75;2.22;;;;;;;16.22;100.00;101974.25;5113542;28;20494;-70
2022/07/07 03:11:33;;;;;;;7.30;1.52;;;;;;;16.24;100.00;101975.16;5111159;28;20016;-71
2022/07/07 03:13:58;;;;;;;8.35;2.15;;;;;;;16.21;100.00;101972.44;5113832;28;20030;-71
2022/07/07 03:16:24;;;;;;;11.38;1.92;;;;;;;16.23;100.00;101978.69;5100308;28;20077;-71
2022/07/07 03:18:49;;;;;;;8.48;1.80;;;;;;;16.23;100.00;101984.00;5107107;28;20032;-71
2022/07/07 03:21:14;;;;;;;11.15;2.20;;;;;;;16.24;100.00;101973.38;5107088;28;20067;-70
2022/07/07 03:23:39;;;;;;;14.52;1.88;;;;;;;16.19;100.00;101981.28;5105867;28;20106;-70
2022/07/07 03:26:05;;;;;;;8.82;2.30;;;;;;;16.19;100.00;101986.59;5111686;28;20098;-71
2022/07/07 03:28:31;;;;;;;9.18;1.48;;;;;;;16.22;100.00;101977.78;5108219;28;20031;-71
2022/07/07 03:30:56;;;;;;;8.38;1.75;;;;;;;16.21;100.00;101969.78;5106813;28;20047;-71
2022/07/07 03:33:22;;;;;;;9.57;2.25;;;;;;;16.21;100.00;101981.34;5101228;28;20051;-71
2022/07/07 03:35:47;;;;;;;9.35;2.00;;;;;;;16.19;100.00;101986.59;5104819;28;20089;-71
2022/07/07 03:38:12;;;;;;;10.45;2.08;;;;;;;16.15;100.00;101984.78;5102079;28;20031;-71
2022/07/07 03:40:38;;;;;;;11.35;3.00;;;;;;;16.18;100.00;101984.84;5112609;28;20076;-71
2022/07/07 03:43:03;;;;;;;11.93;2.38;;;;;;;16.19;100.00;101985.72;5095717;28;20055;-70
2022/07/07 03:45:29;;;;;;;10.05;1.90;;;;;;;16.20;100.00;101984.84;5109412;28;20034;-70
2022/07/07 03:47:54;;;;;;;9.45;2.13;;;;;;;16.15;100.00;101979.47;5101233;28;20039;-71
2022/07/07 03:50:19;;;;;;;16.20;2.83;;;;;;;16.17;100.00;101980.41;5099636;28;20028;-71
2022/07/07 03:52:45;;;;;;;12.30;3.20;;;;;;;16.19;100.00;101985.72;5104629;28;20039;-70
2022/07/07 03:55:10;;;;;;;10.60;2.17;;;;;;;16.23;100.00;101991.97;5095818;28;20019;-71
2022/07/07 03:57:38;;;;;;;12.05;2.15;;;;;;;16.26;100.00;101984.91;5093785;28;20384;-71
2022/07/07 04:00:04;;;;;;;11.35;1.85;;;;;;;16.24;100.00;101988.44;5111376;28;20024;-71
2022/07/07 04:02:29;;;;;;;11.50;1.60;;;;;;;16.28;100.00;101990.25;5108838;28;20022;-71
2022/07/07 04:04:55;;;;;;;6.43;1.30;;;;;;;16.30;100.00;101988.50;5112933;28;20386;-71
2022/07/07 04:07:21;;;;;;;9.40;1.85;;;;;;;16.29;100.00;102003.56;5103269;28;20441;-71
2022/07/07 04:09:46;;;;;;;6.88;1.38;;;;;;;16.32;100.00;102000.06;5105268;28;20037;-71
2022/07/07 04:12:12;;;;;;;2.75;0.75;;;;;;;16.38;100.00;102002.75;5109927;28;20061;-71
2022/07/07 04:14:37;;;;;;;7.22;1.42;;;;;;;16.39;100.00;102012.50;5102939;28;20032;-70
2022/07/07 04:17:03;;;;;;;9.45;1.25;;;;;;;16.37;100.00;102000.97;5103728;28;20505;-71
2022/07/07 04:19:28;;;;;;;6.93;1.50;;;;;;;16.43;100.00;102016.97;5112379;28;20041;-71
2022/07/07 04:21:54;;;;;;;9.90;1.85;;;;;;;16.44;100.00;102018.78;5087438;28;20035;-71
2022/07/07 04:24:19;;;;;;;15.57;2.08;;;;;;;16.43;100.00;102016.97;5107953;28;20015;-72
2022/07/07 04:26:45;;;;;;;10.85;1.70;;;;;;;16.42;100.00;102025.81;5109223;28;20118;-70
2022/07/07 04:29:10;;;;;;;11.05;1.63;;;;;;;16.42;100.00;102019.63;5109506;28;20080;-71
2022/07/07 04:31:35;;;;;;;10.32;1.50;;;;;;;16.37;100.00;102035.50;5110125;28;20491;-70
2022/07/07 04:34:02;;;;;;;8.45;1.20;;;;;;;16.39;100.00;102033.75;5096350;28;20379;-71
2022/07/07 04:36:27;;;;;;;11.65;1.52;;;;;;;16.42;100.00;102032.91;5093565;28;20054;-70
2022/07/07 04:38:52;;;;;;;12.15;1.70;;;;;;;16.45;100.00;102035.59;5100162;28;20459;-71
2022/07/07 04:41:18;;;;;;;10.48;1.98;;;;;;;16.42;100.00;102039.09;5111423;28;20116;-71
2022/07/07 04:43:43;;;;;;;12.90;1.65;;;;;;;16.37;100.00;102043.47;5099289;28;20023;-71
2022/07/07 04:46:08;;;;;;;8.63;1.80;;;;;;;16.40;100.00;102047.94;5110793;28;20475;-71
2022/07/07 04:48:34;;;;;;;11.60;2.17;;;;;;;16.43;100.00;102046.22;5102562;28;20035;-70
2022/07/07 04:50:59;;;;;;;12.52;2.10;;;;;;;16.42;100.00;102052.38;5112444;28;20372;-70
2022/07/07 04:53:24;;;;;;;12.50;2.38;;;;;;;16.45;100.00;102057.72;5097784;28;20023;-70
2022/07/07 04:55:50;;;;;;;12.93;1.77;;;;;;;16.46;100.00;102059.53;5088276;28;20030;-70
2022/07/07 04:58:15;;;;;;;16.40;2.20;;;;;;;16.47;100.00;102050.69;5098106;28;20493;-71
2022/07/07 05:00:40;;;;;;;12.25;2.05;;;;;;;16.52;100.00;102069.31;5100258;28;20020;-71
2022/07/07 05:03:06;;;;;;;12.48;2.30;;;;;;;16.58;100.00;102072.06;5110182;28;20027;-70
2022/07/07 05:05:31;;;;;;;11.52;2.20;;;;;;;16.56;100.00;102065.81;5093282;28;20095;-70
2022/07/07 05:07:56;;;;;;;15.82;2.10;;;;;;;16.61;100.00;102068.56;5114694;28;20467;-71
2022/07/07 05:10:22;;;;;;;15.07;1.92;;;;;;;16.63;100.00;102072.09;5098198;28;20031;-70
2022/07/07 05:12:47;;;;;;;15.65;2.20;;;;;;;16.60;100.00;102072.94;5112491;28;20481;-70
2022/07/07 05:15:13;;;;;;;10.55;1.65;;;;;;;16.62;100.00;102076.53;5115054;28;20050;-70
2022/07/07 05:17:38;;;;;;;15.98;2.22;;;;;;;16.57;100.00;102088.88;5107770;28;20027;-70
2022/07/07 05:20:04;;;;;;;11.65;1.90;;;;;;;16.60;100.00;102088.91;5114859;28;20051;-70
2022/07/07 05:22:30;;;;;;;12.23;2.10;;;;;;;16.59;100.00;102091.53;5114164;28;20474;-70
2022/07/07 05:24:55;;;;;;;11.23;1.85;;;;;;;16.59;100.00;102096.84;5113463;28;20020;-71
2022/07/07 05:27:20;;;;;;;13.70;2.03;;;;;;;16.55;100.00;102103.00;5111384;28;20027;-71
2022/07/07 05:29:46;;;;;;;11.13;1.83;;;;;;;16.56;100.00;102091.53;5112691;28;20108;-71
2022/07/07 05:32:11;;;;;;;14.07;2.05;;;;;;;16.58;100.00;102100.41;5111408;28;20030;-71
2022/07/07 05:34:36;;;;;;;8.75;1.75;;;;;;;16.61;100.00;102093.34;5115104;28;20027;-71
2022/07/07 05:37:02;;;;;;;13.82;2.05;;;;;;;16.66;100.00;102104.06;5086018;28;20016;-70
2022/07/07 05:39:28;;;;;;;12.75;1.67;;;;;;;16.69;100.00;102112.94;5106339;28;20016;-72
2022/07/07 05:41:53;;;;;;;9.80;1.92;;;;;;;16.72;100.00;102104.09;5105570;28;20027;-71
2022/07/07 05:44:19;;;;;;;10.65;1.77;;;;;;;16.76;100.00;102121.88;5102627;28;20043;-70
2022/07/07 05:46:44;;;;;;;14.65;2.20;;;;;;;16.86;100.00;102118.44;5103369;28;20114;-70
2022/07/07 05:49:09;;;;;;;13.50;1.83;;;;;;;16.96;100.00;102118.59;5112916;28;20494;-70
2022/07/07 05:51:35;;;;;;;10.27;1.75;;;;;;;17.00;100.00;102123.94;5115875;28;20043;-71
2022/07/07 05:54:00;;;;;;;8.57;1.75;;;;;;;16.99;100.00;102137.22;5109484;28;20119;-70
2022/07/07 05:56:25;;;;;;;13.82;2.40;;;;;;;16.88;100.00;102147.72;5100718;28;20035;-71
2022/07/07 05:58:50;;;;;;;7.53;1.48;;;;;;;16.55;100.00;102149.09;5110710;28;20084;-71
2022/07/07 06:01:16;;;;;;;9.60;1.83;;;;;;;16.43;100.00;102133.88;5087763;28;20494;-71
2022/07/07 06:03:42;;;;;;;12.50;2.25;;;;;;;16.41;100.00;102151.56;5104466;28;20019;-71
2022/07/07 06:06:07;;;;;;;9.85;1.98;;;;;;;16.38;100.00;102156.84;5113796;28;20035;-72
2022/07/07 06:08:33;;;;;;;8.45;1.77;;;;;;;16.25;100.00;102170.81;5104813;28;20096;-71
2022/07/07 06:10:58;;;;;;;9.20;1.63;;;;;;;16.17;100.00;102170.72;5109976;28;20474;-71
2022/07/07 06:13:23;;;;;;;10.38;1.55;;;;;;;16.10;100.00;102171.47;5101292;28;20403;-72
2022/07/07 06:15:48;;;;;;;9.85;1.60;;;;;;;15.95;100.00;102164.16;5080524;28;20072;-71
2022/07/07 06:18:14;;;;;;;6.85;1.58;;;;;;;15.95;100.00;102167.75;5109537;27;20057;-70
2022/07/07 06:20:39;;;;;;;8.48;1.35;;;;;;;15.98;100.00;102169.56;5101886;28;20104;-70
2022/07/07 06:23:05;;;;;;;9.85;1.23;;;;;;;16.12;100.00;102165.31;5099350;28;20152;-71
2022/07/07 06:25:31;;;;;;;7.95;1.95;;;;;;;16.21;100.00;102169.91;5100378;28;20028;-71
2022/07/07 06:27:56;;;;;;;13.23;1.40;;;;;;;16.31;100.00;102171.78;5114868;28;20035;-71
2022/07/07 06:30:22;;;;;;;15.77;2.80;;;;;;;16.41;100.00;102183.44;5090615;28;20376;-70
2022/07/07 06:32:47;;;;;;;8.15;1.80;;;;;;;16.46;100.00;102171.09;5105960;28;20070;-71
2022/07/07 06:35:13;;;;;;;7.55;1.48;;;;;;;16.44;100.00;102170.22;5094347;28;20535;-70
2022/07/07 06:37:39;;;;;;;8.40;2.30;;;;;;;16.51;100.00;102172.06;5108613;28;20407;-71
2022/07/07 06:40:05;;;;;;;9.90;1.77;;;;;;;16.57;100.00;102176.56;5113905;28;20106;-71
2022/07/07 06:42:30;;;;;;;7.68;1.55;;;;;;;16.64;100.00;102180.19;5114980;28;20069;-71
2022/07/07 06:44:56;;;;;;;9.30;1.13;;;;;;;16.65;100.00;102185.53;5113076;28;20028;-72
2022/07/07 06:47:21;;;;;;;15.73;1.48;;;;;;;16.84;100.00;102189.31;5109849;28;20027;-72
2022/07/07 06:49:46;;;;;;;12.50;1.65;;;;;;;17.03;100.00;102189.56;5089198;28;20024;-72
2022/07/07 06:52:12;;;;;;;11.23;1.73;;;;;;;17.18;100.00;102181.75;5105787;28;20075;-72
2022/07/07 06:54:38;;;;;;;9.20;1.85;;;;;;;17.35;100.00;102202.34;5103865;28;20432;-71
2022/07/07 06:57:05;;;;;;;5.43;1.48;;;;;;;17.41;100.00;102197.06;5103536;28;20030;-72
2022/07/07 06:59:31;;;;;;;5.72;1.48;;;;;;;17.38;100.00;102202.38;5114176;28;20144;-71
2022/07/07 07:01:56;;;;;;;14.38;2.47;;;;;;;17.22;100.00;102205.75;5102871;28;20019;-71
2022/07/07 07:04:21;;;;;;;7.82;1.70;;;;;;;17.17;100.00;102203.94;5114666;28;20023;-72
2022/07/07 07:06:47;;;;;;;13.38;1.77;;;;;;;17.18;100.00;102204.81;5101594;28;20157;-71
2022/07/07 07:09:13;;;;;;;7.28;1.60;;;;;;;17.07;100.00;102212.66;5101535;28;20015;-71
2022/07/07 07:11:38;;;;;;;8.50;1.40;;;;;;;17.12;100.00;102205.63;5090859;28;20054;-72
2022/07/07 07:14:03;;;;;;;7.70;1.63;;;;;;;17.14;100.00;102211.84;5098852;28;20473;-72
2022/07/07 07:16:30;;;;;;;9.10;1.35;;;;;;;17.28;100.00;102216.44;5103025;28;20050;-71
2022/07/07 07:18:55;;;;;;;7.05;1.40;;;;;;;17.35;100.00;102219.19;5109734;28;20077;-71
2022/07/07 07:21:21;;;;;;;4.50;0.90;;;;;;;17.35;100.00;102219.19;5111122;28;20031;-70
2022/07/07 07:23:46;;;;;;;6.25;1.38;;;;;;;17.41;100.00;102229.00;5100009;28;20110;-70
2022/07/07 07:26:12;;;;;;;6.45;1.15;;;;;;;17.55;100.00;102236.22;5103462;28;20027;-70
2022/07/07 07:28:37;;;;;;;9.70;0.88;;;;;;;17.70;100.00;102225.72;5108007;28;20023;-71
2022/07/07 07:31:04;;;;;;;3.42;0.93;;;;;;;17.78;100.00;102224.00;5109312;28;20064;-70
2022/07/07 07:33:30;;;;;;;4.78;0.90;;;;;;;17.83;100.00;102232.94;5082963;28;20045;-71
2022/07/07 07:35:56;;;;;;;5.68;1.20;;;;;;;17.91;100.00;102235.69;5107704;28;20479;-71
2022/07/07 07:38:21;;;;;;;8.80;1.30;;;;;;;17.94;100.00;102245.50;5110426;28;20023;-72
2022/07/07 07:40:47;;;;;;;6.78;1.10;;;;;;;17.92;100.00;102249.91;5113965;28;20056;-71
2022/07/07 07:43:13;;;;;;;8.13;1.25;;;;;;;17.98;100.00;102255.28;5114127;28;20023;-72
2022/07/07 07:45:38;;;;;;;4.68;1.10;;;;;;;18.05;100.00;102249.13;5102923;28;20024;-72
2022/07/07 07:48:04;;;;;;;8.40;1.58;;;;;;;18.14;100.00;102251.88;5104607;28;20028;-71
2022/07/07 07:50:30;;;;;;;8.20;1.38;;;;;;;18.28;100.00;102246.63;5109440;28;20019;-70
2022/07/07 07:52:56;;;;;;;11.57;1.63;;;;;;;18.36;100.00;102252.03;5110528;28;20035;-71
2022/07/07 07:55:22;;;;;;;7.97;1.50;;;;;;;18.18;100.00;102259.00;5078775;28;20028;-72
2022/07/07 07:57:48;;;;;;;12.00;1.40;;;;;;;18.07;100.00;102249.13;5106096;28;20549;-72
2022/07/07 08:00:16;;;;;;;11.05;1.92;;;;;;;17.91;100.00;102259.66;5096544;28;20032;-71
2022/07/07 08:02:42;;;;;;;12.43;2.25;;;;;;;17.67;100.00;102270.94;5104544;28;20468;-72
2022/07/07 08:05:08;;;;;;;6.57;1.23;;;;;;;17.41;100.00;102273.34;5103903;28;20077;-72
2022/07/07 08:07:33;;;;;;;11.88;2.03;;;;;;;17.10;100.00;102271.19;5095160;28;20028;-72
2022/07/07 08:09:59;;;;;;;7.22;1.67;;;;;;;17.02;100.00;102273.78;5083231;28;20024;-71
2022/07/07 08:12:25;;;;;;;7.93;1.35;;;;;;;16.95;100.00;102271.03;5103645;28;20028;-71
2022/07/07 08:14:51;;;;;;;12.55;2.35;;;;;;;17.13;100.00;102265.03;5102433;28;20023;-72
2022/07/07 08:17:17;;;;;;;11.27;1.73;;;;;;;17.21;100.00;102278.44;5102516;28;20027;-71
2022/07/07 08:19:43;;;;;;;8.27;1.23;;;;;;;17.13;100.00;102270.34;5100004;28;20056;-71
2022/07/07 08:22:08;;;;;;;8.73;1.25;;;;;;;17.25;100.00;102273.16;5111971;28;20491;-71
2022/07/07 08:24:33;;;;;;;5.80;0.80;;;;;;;17.55;100.00;102270.84;5107554;28;20103;-71
2022/07/07 08:26:59;;;;;;;5.80;1.00;;;;;;;17.78;100.00;102271.94;5098221;28;20023;-72
2022/07/07 08:29:24;;;;;;;7.57;1.30;;;;;;;17.76;100.00;102273.72;5079203;28;20078;-71
2022/07/07 08:31:49;;;;;;;8.73;1.85;;;;;;;17.79;100.00;102268.41;5097959;28;20020;-70
2022/07/07 08:34:15;;;;;;;7.13;1.35;;;;;;;17.73;100.00;102273.69;5105457;28;20107;-69
2022/07/07 08:36:41;;;;;;;9.85;1.35;;;;;;;17.81;100.00;102281.72;5113248;28;20058;-70
2022/07/07 08:39:06;;;;;;;11.55;2.13;;;;;;;17.75;100.00;102277.25;5100048;28;20107;-70
2022/07/07 08:41:32;;;;;;;5.93;1.38;;;;;;;17.73;100.00;102296.75;5100662;28;20070;-70
2022/07/07 08:43:57;;;;;;;6.35;1.60;;;;;;;17.76;100.00;102288.81;5105775;28;20038;-69
2022/07/07 08:46:23;;;;;;;9.75;1.42;;;;;;;17.67;100.00;102308.22;5097519;28;20383;-69
2022/07/07 08:48:50;;;;;;;7.60;1.17;;;;;;;17.68;100.00;102308.22;5110700;28;20020;-71
2022/07/07 08:51:16;;;;;;;5.32;1.33;;;;;;;17.68;100.00;102310.00;5102952;28;20048;-70
2022/07/07 08:53:44;;;;;;;8.35;1.50;;;;;;;17.67;100.00;102317.09;5105031;28;20517;-73
2022/07/07 08:56:10;;;;;;;10.25;1.95;;;;;;;17.60;100.00;102315.25;5109628;28;20027;-73
2022/07/07 08:58:36;;;;;;;9.90;1.55;;;;;;;17.64;100.00;102316.19;5110827;28;20483;-72
2022/07/07 09:01:08;;;;;;;13.30;1.48;;;;;;;17.73;100.00;102326.03;5104020;28;20034;-72
2022/07/07 09:03:34;;;;;;;7.00;1.30;;;;;;;17.93;100.00;102328.94;5110990;28;20080;-72
2022/07/07 09:06:00;;;;;;;13.68;1.70;;;;;;;17.95;100.00;102327.19;5107838;28;20471;-73
2022/07/07 09:08:28;;;;;;;8.48;1.42;;;;;;;17.94;100.00;102326.28;5107386;28;20047;-70
2022/07/07 09:10:54;;;;;;;5.72;0.95;;;;;;;17.90;100.00;102334.19;5083622;28;20405;-73
2022/07/07 09:13:28;;;;;;;7.38;2.00;;;;;;;18.08;100.00;102337.09;5112042;28;20082;-68
2022/07/07 09:15:55;;;;;;;8.25;1.08;;;;;;;18.34;100.00;102331.97;5100437;28;20028;-68
2022/07/07 09:18:43;;;;;;;11.38;1.30;;;;;;;18.54;100.00;102339.22;5096238;28;20035;-69
2022/07/07 09:21:29;;;;;;;5.05;2.10;;;;;;;18.56;100.00;102349.88;5102390;28;20035;-68
2022/07/07 09:23:57;;;;;;;10.18;1.58;;;;;;;18.35;100.00;102354.19;5101005;28;20031;-67
2022/07/07 09:26:34;;;;;;;13.93;1.48;;;;;;;18.26;100.00;102348.75;5102009;28;20028;-71
2022/07/07 09:29:00;;;;;;;8.23;1.65;;;;;;;18.32;100.00;102355.03;5106975;28;20038;-73
2022/07/07 09:31:25;;;;;;;8.52;1.58;;;;;;;18.39;100.00;102369.31;5116610;28;20031;-73
2022/07/07 09:34:10;;;;;;;9.55;1.90;;;;;;;18.40;100.00;102367.56;5111178;28;20024;-72
2022/07/07 09:39:19;;;;;;;;;;;;;;;18.43;100.00;102373.78;5104390;28;20108;-78
2022/07/07 09:41:45;;;;;;;6.53;1.50;;;;;;;18.34;100.00;102387.06;5109707;28;20375;-71
2022/07/07 09:44:10;;;;;;;13.88;1.98;;;;;;;18.24;100.00;102393.16;5098147;28;20285;-71
2022/07/07 09:46:36;;;;;;;13.48;2.00;;;;;;;18.13;100.00;102393.94;5085913;28;20049;-73
2022/07/07 09:49:02;;;;;;;10.32;1.85;;;;;;;18.02;100.00;102407.16;5087988;28;20032;-71
2022/07/07 09:51:32;;;;;;;10.70;1.58;;;;;;;17.96;100.00;102409.78;5102882;28;20441;-71
2022/07/07 09:54:12;;;;;;;6.65;1.02;;;;;;;17.89;100.00;102407.84;5072592;28;20114;-72
2022/07/07 09:56:41;;;;;;;7.15;1.25;;;;;;;17.97;100.00;102410.66;5093059;28;20031;-72
2022/07/07 09:59:11;;;;;;;6.10;1.05;;;;;;;18.05;100.00;102418.72;5110803;27;20478;-73
2022/07/07 10:01:39;;;;;;;11.23;1.45;;;;;;;18.33;100.00;102423.47;5102790;28;20030;-73
2022/07/07 10:04:09;;;;;;;4.53;1.33;;;;;;;18.50;100.00;102420.97;5104929;28;20020;-73
2022/07/07 10:06:37;;;;;;;9.02;1.30;;;;;;;18.57;100.00;102419.25;5110283;28;20019;-72
2022/07/07 10:09:05;;;;;;;7.32;1.23;;;;;;;18.41;100.00;102423.53;5101028;28;20028;-73
2022/07/07 10:11:45;;;;;;;7.53;1.42;;;;;;;18.49;100.00;102427.16;5094278;28;20028;-72
2022/07/07 10:14:16;;;;;;;16.13;1.95;;;;;;;18.57;100.00;102424.56;5110657;28;20024;-73
2022/07/07 10:16:43;;;;;;;8.57;1.80;;;;;;;18.65;100.00;102427.28;5106009;28;20399;-74
2022/07/07 10:19:11;;;;;;;15.45;1.90;;;;;;;18.79;100.00;102433.63;5101509;28;20027;-72
2022/07/07 10:21:40;;;;;;;10.77;1.63;;;;;;;19.02;100.00;102443.63;5111674;28;20468;-73
2022/07/07 10:24:06;;;;;;;10.93;2.10;;;;;;;19.14;100.00;102442.78;5086612;28;20027;-72
2022/07/07 10:26:39;;;;;;;16.88;2.17;;;;;;;19.13;100.00;102452.59;5086582;28;20109;-73
2022/07/07 10:29:05;;;;;;;;;;;;;;;18.95;100.00;102455.09;5107695;28;20062;-71
2022/07/07 10:31:31;;;;;;;8.25;1.75;;;;;;;18.83;100.00;102464.78;5105973;28;20390;-71
2022/07/07 10:34:06;;;;;;;8.60;1.58;;;;;;;18.62;100.00;102481.47;5103194;28;20032;-72
2022/07/07 10:36:46;;;;;;;5.50;1.05;;;;;;;18.32;100.00;102472.28;5100937;28;20024;-73
2022/07/07 10:39:12;;;;;;;9.93;1.58;;;;;;;18.29;100.00;102476.72;5103979;28;20107;-72
2022/07/07 10:41:40;;;;;;;6.22;1.20;;;;;;;18.27;100.00;102478.47;5107308;28;20546;-72
2022/07/07 10:44:09;;;;;;;5.55;1.00;;;;;;;18.49;100.00;102484.94;5090386;28;20024;-74
2022/07/07 10:46:35;;;;;;;5.82;1.20;;;;;;;18.66;100.00;102479.75;5113335;28;20031;-75
2022/07/07 10:49:09;;;;;;;4.57;1.05;;;;;;;18.67;100.00;102494.88;5105920;28;20035;-75
2022/07/07 10:51:53;;;;;;;3.70;0.90;;;;;;;18.56;100.00;102505.44;5092628;28;20131;-75
2022/07/07 10:54:34;;;;;;;6.72;1.13;;;;;;;18.15;100.00;102521.84;5103844;28;20023;-75
2022/07/07 10:56:59;;;;;;;5.93;1.15;;;;;;;18.07;100.00;102523.50;5102144;28;20020;-75
2022/07/07 10:59:26;;;;;;;4.75;1.27;;;;;;;18.02;100.00;102515.47;5107647;28;20035;-75
2022/07/07 11:02:00;;;;;;;4.30;1.08;;;;;;;18.00;100.00;102517.22;5106185;28;20032;-76
2022/07/07 11:04:44;;;;;;;10.30;1.85;;;;;;;17.97;100.00;102527.84;5106942;28;20019;-75
2022/07/07 11:07:21;;;;;;;8.27;1.63;;;;;;;17.90;100.00;102534.81;5111832;28;20034;-73
2022/07/07 11:10:01;;;;;;;6.07;1.50;;;;;;;17.59;100.00;102536.16;5088854;28;20031;-75
2022/07/07 11:12:36;;;;;;;5.80;1.63;;;;;;;17.33;100.00;102545.53;5090681;28;20497;-76
2022/07/07 11:15:20;;;;;;;9.90;2.08;;;;;;;17.38;100.00;102556.28;5108467;28;20067;-76
2022/07/07 11:17:47;;;;;;;9.90;1.92;;;;;;;17.39;100.00;102570.47;5076065;28;20036;-75